createdAt,value
2018-09-27T00:01:35.043Z,4.05
2018-09-27T00:04:05.748Z,3.87
2018-09-27T00:06:40.020Z,3.70
2018-09-27T00:09:09.704Z,3.85
2018-09-27T00:11:40.620Z,3.75
2018-09-27T00:14:10.548Z,3.87
2018-09-27T00:16:40.180Z,3.87
2018-09-27T00:19:11.932Z,3.58
2018-09-27T00:21:43.740Z,4.70
2018-09-27T00:24:14.301Z,4.28
2018-09-27T00:26:44.824Z,4.45
2018-09-27T00:29:15.379Z,4.72
2018-09-27T00:31:46.908Z,4.25
2018-09-27T00:34:18.795Z,4.03
2018-09-27T00:36:48.700Z,4.37
2018-09-27T00:39:22.196Z,4.00
2018-09-27T00:41:53.040Z,4.42
2018-09-27T00:44:22.731Z,4.70
2018-09-27T00:46:53.294Z,4.35
2018-09-27T00:49:28.756Z,4.05
2018-09-27T00:51:58.576Z,4.20
2018-09-27T00:54:29.171Z,4.70
2018-09-27T00:56:58.975Z,4.70
2018-09-27T00:59:29.792Z,4.90
2018-09-27T01:02:05.039Z,3.70
2018-09-27T01:04:36.863Z,4.45
2018-09-27T01:07:06.724Z,4.60
2018-09-27T01:09:36.380Z,3.70
2018-09-27T01:12:10.133Z,4.37
2018-09-27T01:14:41.044Z,4.05
2018-09-27T01:17:11.868Z,4.20
2018-09-27T01:19:43.996Z,4.20
2018-09-27T01:22:14.807Z,4.67
2018-09-27T01:24:44.693Z,3.75
2018-09-27T01:27:18.928Z,4.42
2018-09-27T01:29:48.835Z,4.50
2018-09-27T01:32:19.431Z,3.67
2018-09-27T01:34:49.279Z,4.10
2018-09-27T01:37:27.395Z,4.50
2018-09-27T01:40:06.923Z,4.45
2018-09-27T01:42:47.391Z,3.95
2018-09-27T01:45:18.219Z,3.80
2018-09-27T01:47:48.136Z,4.08
2018-09-27T01:50:18.058Z,3.70
2018-09-27T01:53:03.631Z,4.47
2018-09-27T01:55:36.517Z,4.22
2018-09-27T01:58:06.450Z,4.65
2018-09-27T02:00:37.367Z,5.55
2018-09-27T02:03:12.424Z,5.30
2018-09-27T02:05:54.015Z,4.70
2018-09-27T02:08:35.012Z,5.08
2018-09-27T02:11:09.568Z,5.65
2018-09-27T02:13:42.773Z,4.72
2018-09-27T02:16:12.680Z,5.55
2018-09-27T02:18:43.547Z,4.53
2018-09-27T02:21:17.416Z,4.92
2018-09-27T02:23:50.451Z,4.80
2018-09-27T02:26:21.356Z,3.98
2018-09-27T02:28:51.240Z,5.03
2018-09-27T02:31:26.499Z,4.35
2018-09-27T02:33:57.116Z,4.45
2018-09-27T02:36:26.952Z,4.22
2018-09-27T02:38:57.760Z,4.62
2018-09-27T02:41:28.827Z,5.25
2018-09-27T02:43:59.676Z,4.55
2018-09-27T02:46:29.584Z,4.75
2018-09-27T02:49:00.407Z,4.00
2018-09-27T02:51:30.299Z,5.62
2018-09-27T02:53:59.895Z,4.22
2018-09-27T02:56:31.650Z,4.42
2018-09-27T02:59:01.492Z,4.05
2018-09-27T03:01:33.355Z,5.17
2018-09-27T03:04:04.275Z,5.08
2018-09-27T03:06:34.083Z,4.97
2018-09-27T03:09:08.159Z,5.42
2018-09-27T03:11:38.711Z,5.00
2018-09-27T03:14:08.275Z,4.72
2018-09-27T03:16:38.052Z,5.97
2018-09-27T03:19:08.903Z,5.15
2018-09-27T03:21:39.523Z,5.55
2018-09-27T03:24:10.047Z,4.50
2018-09-27T03:26:40.576Z,4.50
2018-09-27T03:29:10.210Z,4.17
2018-09-27T03:31:41.960Z,4.30
2018-09-27T03:34:12.528Z,4.17
2018-09-27T03:36:43.091Z,4.37
2018-09-27T03:39:14.872Z,4.50
2018-09-27T03:41:44.784Z,4.40
2018-09-27T03:44:17.851Z,5.58
2018-09-27T03:46:49.700Z,4.25
2018-09-27T03:49:19.547Z,4.90
2018-09-27T03:51:49.427Z,5.45
2018-09-27T03:54:20.280Z,4.58
2018-09-27T03:56:51.149Z,4.97
2018-09-27T03:59:21.043Z,4.95
2018-09-27T04:01:51.643Z,4.90
2018-09-27T04:04:23.219Z,5.62
2018-09-27T04:06:54.971Z,5.28
2018-09-27T04:09:24.763Z,4.28
2018-09-27T04:11:54.375Z,4.95
2018-09-27T04:14:24.191Z,4.25
2018-09-27T04:16:55.027Z,4.65
2018-09-27T04:19:24.843Z,4.90
2018-09-27T04:21:54.506Z,5.00
2018-09-27T04:24:29.463Z,5.40
2018-09-27T04:26:59.219Z,4.47
2018-09-27T04:29:30.020Z,5.17
2018-09-27T04:32:05.735Z,5.20
2018-09-27T04:34:35.635Z,4.70
2018-09-27T04:37:05.512Z,6.15
2018-09-27T04:39:35.107Z,5.87
2018-09-27T04:42:04.823Z,5.80
2018-09-27T04:44:34.424Z,5.72
2018-09-27T04:47:04.163Z,5.17
2018-09-27T04:49:34.039Z,5.85
2018-09-27T04:52:04.903Z,6.20
2018-09-27T04:54:41.907Z,6.67
2018-09-27T04:57:18.511Z,7.22
2018-09-27T04:59:51.881Z,6.30
2018-09-27T05:02:21.503Z,5.83
2018-09-27T05:04:54.271Z,5.55
2018-09-27T05:07:29.491Z,5.87
2018-09-27T05:09:59.159Z,4.75
2018-09-27T05:12:29.863Z,5.92
2018-09-27T05:14:59.468Z,6.80
2018-09-27T05:17:29.177Z,5.95
2018-09-27T05:20:00.085Z,5.40
2018-09-27T05:22:29.943Z,5.75
2018-09-27T05:25:00.747Z,6.20
2018-09-27T05:27:32.584Z,6.10
2018-09-27T05:30:05.739Z,6.15
2018-09-27T05:32:36.440Z,5.78
2018-09-27T05:35:13.952Z,5.87
2018-09-27T05:37:44.840Z,6.53
2018-09-27T05:40:18.572Z,7.35
2018-09-27T05:42:53.527Z,6.12
2018-09-27T05:45:27.961Z,5.62
2018-09-27T05:47:59.800Z,7.58
2018-09-27T05:50:29.591Z,6.78
2018-09-27T05:53:06.064Z,6.50
2018-09-27T05:55:37.202Z,6.70
2018-09-27T05:58:08.955Z,8.83
2018-09-27T06:00:49.860Z,8.73
2018-09-27T06:03:21.723Z,7.90
2018-09-27T06:05:54.687Z,6.78
2018-09-27T06:08:27.875Z,7.75
2018-09-27T06:11:01.622Z,7.37
2018-09-27T06:13:35.712Z,7.62
2018-09-27T06:16:07.405Z,8.45
2018-09-27T06:18:38.195Z,8.40
2018-09-27T06:21:07.795Z,9.80
2018-09-27T06:23:37.579Z,8.37
2018-09-27T06:26:08.255Z,8.90
2018-09-27T06:28:39.063Z,9.33
2018-09-27T06:31:09.995Z,9.80
2018-09-27T06:33:39.904Z,8.90
2018-09-27T06:36:09.595Z,10.07
2018-09-27T06:38:39.821Z,8.90
2018-09-27T06:41:17.498Z,9.33
2018-09-27T06:43:47.367Z,9.27
2018-09-27T06:46:17.204Z,7.53
2018-09-27T06:48:47.868Z,7.90
2018-09-27T06:51:21.151Z,7.17
2018-09-27T06:53:50.862Z,7.13
2018-09-27T06:56:30.414Z,8.50
2018-09-27T06:59:00.259Z,6.90
2018-09-27T07:01:33.509Z,7.77
2018-09-27T07:04:03.187Z,7.87
2018-09-27T07:06:36.063Z,7.73
2018-09-27T07:09:09.908Z,8.63
2018-09-27T07:11:40.071Z,8.73
2018-09-27T07:14:10.595Z,8.63
2018-09-27T07:16:48.370Z,8.57
2018-09-27T07:19:19.847Z,8.30
2018-09-27T07:22:00.471Z,9.40
2018-09-27T07:24:35.583Z,9.83
2018-09-27T07:27:06.303Z,8.67
2018-09-27T07:29:35.887Z,8.67
2018-09-27T07:32:24.630Z,9.60
2018-09-27T07:34:54.239Z,8.80
2018-09-27T07:37:27.131Z,9.90
2018-09-27T07:39:58.699Z,9.20
2018-09-27T07:42:33.354Z,8.40
2018-09-27T07:45:06.382Z,9.23
2018-09-27T07:47:37.099Z,9.10
2018-09-27T07:50:06.787Z,8.70
2018-09-27T07:52:43.627Z,9.37
2018-09-27T07:55:21.175Z,9.63
2018-09-27T07:57:52.867Z,9.47
2018-09-27T08:00:22.467Z,9.07
2018-09-27T08:02:53.425Z,8.87
2018-09-27T08:05:22.690Z,9.60
2018-09-27T08:07:52.379Z,9.93
2018-09-27T08:10:21.906Z,8.90
2018-09-27T08:12:53.707Z,8.93
2018-09-27T08:15:24.323Z,7.67
2018-09-27T08:17:53.770Z,9.40
2018-09-27T08:20:23.376Z,7.77
2018-09-27T08:22:52.811Z,7.70
2018-09-27T08:25:26.426Z,9.57
2018-09-27T08:27:56.222Z,7.73
2018-09-27T08:30:26.068Z,7.70
2018-09-27T08:32:55.647Z,8.37
2018-09-27T08:35:25.315Z,8.67
2018-09-27T08:37:54.963Z,8.40
2018-09-27T08:40:24.683Z,8.03
2018-09-27T08:42:55.219Z,7.33
2018-09-27T08:45:27.412Z,9.40
2018-09-27T08:48:00.051Z,7.90
2018-09-27T08:50:29.642Z,8.33
2018-09-27T08:53:00.404Z,8.53
2018-09-27T08:55:34.278Z,7.80
2018-09-27T08:58:05.023Z,8.30
2018-09-27T09:00:36.111Z,8.40
2018-09-27T09:03:07.867Z,8.10
2018-09-27T09:05:44.291Z,9.93
2018-09-27T09:08:17.805Z,8.43
2018-09-27T09:10:47.571Z,8.33
2018-09-27T09:13:18.120Z,8.10
2018-09-27T09:15:47.840Z,8.40
2018-09-27T09:18:23.375Z,9.10
2018-09-27T09:20:52.927Z,9.03
2018-09-27T09:23:23.414Z,9.20
2018-09-27T09:25:53.104Z,10.03
2018-09-27T09:28:22.615Z,9.67
2018-09-27T09:30:52.343Z,9.33
2018-09-27T09:33:25.886Z,8.83
2018-09-27T09:35:57.647Z,9.60
2018-09-27T09:38:38.258Z,8.87
2018-09-27T09:43:53.087Z,9.43
2018-09-27T09:46:22.879Z,9.50
2018-09-27T09:48:52.402Z,9.07
2018-09-27T09:51:23.086Z,9.13
2018-09-27T09:53:52.630Z,8.70
2018-09-27T09:56:22.305Z,9.40
2018-09-27T09:58:52.142Z,9.33
2018-09-27T10:01:23.003Z,8.70
2018-09-27T10:03:53.462Z,9.80
2018-09-27T10:06:28.455Z,9.10
2018-09-27T10:09:00.364Z,8.30
2018-09-27T10:11:33.594Z,9.10
2018-09-27T10:14:03.462Z,6.80
2018-09-27T10:16:33.327Z,7.80
2018-09-27T10:19:04.695Z,6.70
2018-09-27T10:21:34.671Z,6.00
2018-09-27T10:24:04.538Z,5.60
2018-09-27T10:26:35.298Z,6.40
2018-09-27T10:29:06.051Z,7.30
2018-09-27T10:31:35.882Z,6.80
2018-09-27T10:34:15.968Z,5.60
2018-09-27T10:36:49.399Z,6.40
2018-09-27T10:39:23.307Z,4.97
2018-09-27T10:41:52.815Z,4.67
2018-09-27T10:44:25.902Z,4.70
2018-09-27T10:47:02.310Z,4.63
2018-09-27T10:49:32.170Z,4.93
2018-09-27T10:52:02.007Z,5.57
2018-09-27T10:54:33.746Z,6.00
2018-09-27T10:57:03.670Z,4.50
2018-09-27T10:59:33.523Z,4.60
2018-09-27T11:02:04.238Z,4.97
2018-09-27T11:04:33.992Z,4.60
2018-09-27T11:07:03.550Z,5.57
2018-09-27T11:09:37.586Z,5.20
2018-09-27T11:12:14.906Z,6.27
2018-09-27T11:14:44.717Z,6.07
2018-09-27T11:17:14.470Z,5.63
2018-09-27T11:19:46.326Z,6.70
2018-09-27T11:22:17.175Z,6.57
2018-09-27T11:24:46.987Z,6.97
2018-09-27T11:27:16.787Z,5.90
2018-09-27T11:29:51.839Z,5.67
2018-09-27T11:32:27.022Z,7.00
2018-09-27T11:35:02.851Z,7.20
2018-09-27T11:37:38.703Z,7.10
2018-09-27T11:40:09.779Z,6.40
2018-09-27T11:42:41.721Z,5.63
2018-09-27T11:45:13.539Z,6.73
2018-09-27T11:47:45.387Z,6.47
2018-09-27T11:50:15.051Z,5.87
2018-09-27T11:52:45.727Z,5.23
2018-09-27T11:55:15.556Z,5.27
2018-09-27T11:57:45.465Z,5.87
2018-09-27T12:00:16.291Z,5.80
2018-09-27T12:02:48.983Z,5.57
2018-09-27T12:05:19.818Z,5.73
2018-09-27T12:07:50.779Z,5.13
2018-09-27T12:10:20.431Z,5.80
2018-09-27T12:12:50.131Z,5.63
2018-09-27T12:15:19.979Z,6.00
2018-09-27T12:17:50.595Z,6.33
2018-09-27T12:20:20.279Z,5.20
2018-09-27T12:22:50.222Z,5.53
2018-09-27T12:25:20.734Z,5.50
2018-09-27T12:27:50.507Z,4.93
2018-09-27T12:30:20.431Z,5.87
2018-09-27T12:32:50.227Z,4.67
2018-09-27T12:35:20.004Z,4.60
2018-09-27T12:37:50.887Z,5.50
2018-09-27T12:40:21.671Z,5.43
2018-09-27T12:42:52.232Z,5.67
2018-09-27T12:45:23.990Z,5.10
2018-09-27T12:47:53.631Z,5.10
2018-09-27T12:50:23.422Z,6.10
2018-09-27T12:52:53.075Z,5.40
2018-09-27T12:55:28.407Z,5.00
2018-09-27T12:57:58.238Z,5.27
2018-09-27T13:00:28.048Z,5.87
2018-09-27T13:02:57.850Z,5.10
2018-09-27T13:05:28.387Z,6.10
2018-09-27T13:07:58.169Z,5.80
2018-09-27T13:11:31.170Z,4.40
2018-09-27T13:14:00.951Z,4.70
2018-09-27T13:16:30.596Z,4.60
2018-09-27T13:19:00.363Z,4.00
2018-09-27T13:21:33.334Z,4.47
2018-09-27T13:24:04.374Z,3.93
2018-09-27T13:26:35.176Z,3.00
2018-09-27T13:29:05.998Z,2.93
2018-09-27T13:31:46.495Z,5.13
2018-09-27T13:34:21.515Z,4.30
2018-09-27T13:36:51.234Z,5.40
2018-09-27T13:39:20.718Z,4.00
2018-09-27T13:41:50.542Z,4.93
2018-09-27T13:44:21.329Z,3.97
2018-09-27T13:46:50.954Z,3.27
2018-09-27T13:49:20.630Z,2.97
2018-09-27T13:51:51.377Z,3.87
2018-09-27T13:54:23.179Z,3.93
2018-09-27T13:56:57.591Z,3.40
2018-09-27T13:59:30.859Z,3.70
2018-09-27T14:02:04.063Z,3.10
2018-09-27T14:04:45.467Z,4.20
2018-09-27T14:07:16.315Z,4.00
2018-09-27T14:09:45.879Z,4.00
2018-09-27T14:12:25.146Z,4.93
2018-09-27T14:14:54.703Z,4.30
2018-09-27T14:17:24.422Z,4.43
2018-09-27T14:19:58.440Z,4.50
2018-09-27T14:22:38.390Z,4.10
2018-09-27T14:25:08.249Z,4.70
2018-09-27T14:27:41.089Z,4.30
2018-09-27T14:30:10.909Z,3.97
2018-09-27T14:32:42.745Z,3.53
2018-09-27T14:35:12.502Z,3.30
2018-09-27T14:37:43.285Z,4.03
2018-09-27T14:40:19.177Z,3.63
2018-09-27T14:42:50.909Z,3.53
2018-09-27T14:45:25.225Z,4.77
2018-09-27T14:47:55.068Z,5.17
2018-09-27T14:50:25.705Z,3.83
2018-09-27T14:53:01.237Z,2.57
2018-09-27T14:55:34.616Z,4.00
2018-09-27T14:58:08.928Z,2.83
2018-09-27T15:00:38.760Z,2.97
2018-09-27T15:03:08.540Z,3.23
2018-09-27T15:05:38.371Z,3.30
2018-09-27T15:08:09.198Z,3.23
2018-09-27T15:10:38.971Z,4.03
2018-09-27T15:13:14.103Z,4.20
2018-09-27T15:15:44.874Z,3.43
2018-09-27T15:18:15.701Z,3.30
2018-09-27T15:20:45.444Z,3.87
2018-09-27T15:23:15.230Z,3.53
2018-09-27T15:25:48.842Z,3.33
2018-09-27T15:28:19.387Z,4.20
2018-09-27T15:30:50.275Z,4.23
2018-09-27T15:33:20.019Z,3.20
2018-09-27T15:35:50.871Z,4.13
2018-09-27T15:38:20.615Z,3.80
2018-09-27T15:40:50.370Z,2.83
2018-09-27T15:43:20.199Z,2.90
2018-09-27T15:45:49.723Z,3.40
2018-09-27T15:48:19.499Z,4.17
2018-09-27T15:50:50.551Z,5.10
2018-09-27T15:53:23.731Z,4.53
2018-09-27T15:55:54.567Z,4.37
2018-09-27T15:58:24.192Z,3.90
2018-09-27T16:00:53.919Z,3.90
2018-09-27T16:03:24.439Z,4.33
2018-09-27T16:05:55.224Z,4.53
2018-09-27T16:08:24.895Z,4.10
2018-09-27T16:10:54.660Z,5.47
2018-09-27T16:13:26.443Z,4.00
2018-09-27T16:15:56.195Z,3.77
2018-09-27T16:18:29.863Z,4.77
2018-09-27T16:21:03.355Z,3.87
2018-09-27T16:23:33.162Z,4.03
2018-09-27T16:26:02.891Z,3.70
2018-09-27T16:28:32.667Z,2.90
2018-09-27T16:31:04.434Z,3.27
2018-09-27T16:33:34.276Z,4.00
2018-09-27T16:36:05.114Z,3.77
2018-09-27T16:38:38.565Z,3.90
2018-09-27T16:41:10.481Z,3.77
2018-09-27T16:43:40.357Z,3.07
2018-09-27T16:46:10.145Z,4.00
2018-09-27T16:48:41.749Z,3.53
2018-09-27T16:51:13.249Z,3.73
2018-09-27T16:53:46.149Z,4.43
2018-09-27T16:56:15.655Z,4.30
2018-09-27T16:58:49.555Z,3.53
2018-09-27T17:01:19.362Z,3.63
2018-09-27T17:03:48.973Z,3.80
2018-09-27T17:06:19.506Z,3.80
2018-09-27T17:08:49.006Z,4.90
2018-09-27T17:11:18.510Z,3.93
2018-09-27T17:13:49.247Z,4.40
2018-09-27T17:16:20.090Z,4.53
2018-09-27T17:18:49.767Z,4.80
2018-09-27T17:21:19.434Z,5.20
2018-09-27T17:23:49.219Z,4.70
2018-09-27T17:26:18.879Z,4.33
2018-09-27T17:28:50.367Z,3.70
2018-09-27T17:31:22.270Z,4.30
2018-09-27T17:33:54.961Z,4.63
2018-09-27T17:36:24.544Z,4.20
2018-09-27T17:38:56.118Z,4.27
2018-09-27T17:41:25.818Z,4.13
2018-09-27T17:43:56.627Z,3.63
2018-09-27T17:46:27.569Z,2.90
2018-09-27T17:48:58.464Z,4.73
2018-09-27T17:51:29.015Z,3.10
2018-09-27T17:53:58.788Z,3.60
2018-09-27T17:56:30.559Z,3.50
2018-09-27T17:59:01.497Z,3.53
2018-09-27T18:01:33.044Z,3.20
2018-09-27T18:04:02.982Z,3.70
2018-09-27T18:06:32.806Z,3.17
2018-09-27T18:09:02.706Z,3.87
2018-09-27T18:11:34.416Z,3.70
2018-09-27T18:14:05.050Z,4.00
2018-09-27T18:16:34.954Z,3.43
2018-09-27T18:19:07.499Z,3.63
2018-09-27T18:21:39.179Z,3.40
2018-09-27T18:24:11.478Z,3.87
2018-09-27T18:26:43.150Z,4.30
2018-09-27T18:29:16.222Z,4.50
2018-09-27T18:31:47.161Z,4.53
2018-09-27T18:34:17.145Z,4.33
2018-09-27T18:36:50.246Z,4.30
2018-09-27T18:39:20.898Z,4.00
2018-09-27T18:44:30.787Z,4.03
2018-09-27T18:47:00.686Z,4.40
2018-09-27T18:49:31.306Z,4.20
2018-09-27T18:52:01.947Z,3.30
2018-09-27T18:54:32.442Z,3.63
2018-09-27T18:57:02.273Z,4.47
2018-09-27T18:59:38.985Z,4.70
2018-09-27T19:02:10.587Z,5.00
2018-09-27T19:04:43.718Z,4.00
2018-09-27T19:07:15.573Z,4.90
2018-09-27T19:09:46.550Z,5.27
2018-09-27T19:12:19.382Z,5.60
2018-09-27T19:14:49.065Z,5.00
2018-09-27T19:17:19.923Z,4.93
2018-09-27T19:19:51.574Z,4.73
2018-09-27T19:22:22.315Z,4.57
2018-09-27T19:24:55.511Z,4.80
2018-09-27T19:27:25.662Z,4.57
2018-09-27T19:29:55.774Z,5.10
2018-09-27T19:32:28.615Z,3.37
2018-09-27T19:34:59.430Z,4.40
2018-09-27T19:37:36.443Z,3.43
2018-09-27T19:40:06.434Z,3.77
2018-09-27T19:42:42.336Z,4.07
2018-09-27T19:45:15.698Z,3.77
2018-09-27T19:47:46.506Z,3.93
2018-09-27T19:50:16.354Z,3.60
2018-09-27T19:52:47.991Z,4.40
2018-09-27T19:55:24.114Z,3.03
2018-09-27T19:57:53.941Z,3.60
2018-09-27T20:00:25.514Z,4.43
2018-09-27T20:03:00.894Z,3.43
2018-09-27T20:05:30.882Z,3.50
2018-09-27T20:08:00.838Z,4.27
2018-09-27T20:10:30.516Z,4.03
2018-09-27T20:13:00.335Z,4.07
2018-09-27T20:15:31.321Z,4.43
2018-09-27T20:18:03.190Z,4.83
2018-09-27T20:20:33.745Z,4.20
2018-09-27T20:23:04.822Z,3.77
2018-09-27T20:25:34.354Z,4.30
2018-09-27T20:28:05.160Z,4.67
2018-09-27T20:30:35.061Z,4.57
2018-09-27T20:33:08.238Z,4.40
2018-09-27T20:35:39.134Z,4.83
2018-09-27T20:38:10.014Z,4.70
2018-09-27T20:40:40.834Z,5.93
2018-09-27T20:43:14.445Z,5.97
2018-09-27T20:45:46.166Z,5.93
2018-09-27T20:48:15.950Z,5.40
2018-09-27T20:50:46.845Z,5.30
2018-09-27T20:53:17.661Z,5.17
2018-09-27T20:55:48.489Z,5.60
2018-09-27T20:58:21.394Z,5.37
2018-09-27T21:00:50.974Z,4.60
2018-09-27T21:03:20.678Z,4.57
2018-09-27T21:05:50.298Z,6.03
2018-09-27T21:08:20.125Z,5.57
2018-09-27T21:10:56.417Z,5.67
2018-09-27T21:13:35.953Z,6.07
2018-09-27T21:16:06.822Z,5.80
2018-09-27T21:18:36.702Z,5.73
2018-09-27T21:21:09.729Z,5.40
2018-09-27T21:23:42.745Z,5.80
2018-09-27T21:26:14.597Z,5.97
2018-09-27T21:28:48.706Z,6.10
2018-09-27T21:31:18.554Z,5.60
2018-09-27T21:33:49.137Z,6.17
2018-09-27T21:36:19.901Z,5.63
2018-09-27T21:38:49.521Z,5.60
2018-09-27T21:41:19.305Z,5.97
2018-09-27T21:43:49.038Z,5.50
2018-09-27T21:46:19.397Z,5.80
2018-09-27T21:48:49.137Z,5.70
2018-09-27T21:51:20.686Z,6.50
2018-09-27T21:53:52.241Z,6.00
2018-09-27T21:56:25.425Z,6.43
2018-09-27T21:58:56.426Z,4.87
2018-09-27T22:01:26.353Z,5.70
2018-09-27T22:03:57.246Z,6.33
2018-09-27T22:06:27.910Z,6.70
2018-09-27T22:08:59.682Z,6.60
2018-09-27T22:11:30.430Z,5.30
2018-09-27T22:14:00.261Z,6.03
2018-09-27T22:16:29.914Z,6.30
2018-09-27T22:18:59.673Z,5.80
2018-09-27T22:21:36.054Z,7.03
2018-09-27T22:24:08.005Z,6.47
2018-09-27T22:26:37.890Z,6.30
2018-09-27T22:29:07.770Z,6.37
2018-09-27T22:31:45.257Z,7.53
2018-09-27T22:34:15.154Z,7.47
2018-09-27T22:36:44.822Z,7.07
2018-09-27T22:39:14.582Z,6.83
2018-09-27T22:41:45.729Z,6.60
2018-09-27T22:44:15.675Z,6.17
2018-09-27T22:46:45.702Z,7.03
2018-09-27T22:49:17.131Z,6.40
2018-09-27T22:51:47.106Z,7.40
2018-09-27T22:54:18.533Z,6.10
2018-09-27T22:56:48.193Z,6.30
2018-09-27T22:59:19.797Z,6.43
2018-09-27T23:01:49.589Z,7.17
2018-09-27T23:04:20.429Z,7.30
2018-09-27T23:06:50.086Z,6.40
2018-09-27T23:09:20.098Z,6.37
2018-09-27T23:11:49.809Z,6.70
2018-09-27T23:14:19.341Z,6.00
2018-09-27T23:16:49.873Z,7.00
2018-09-27T23:19:22.549Z,6.67
2018-09-27T23:21:57.098Z,7.37
2018-09-27T23:24:28.078Z,6.43
2018-09-27T23:26:57.905Z,6.43
2018-09-27T23:29:28.805Z,7.00
2018-09-27T23:31:59.398Z,7.53
2018-09-27T23:34:31.339Z,6.10
2018-09-27T23:37:03.189Z,6.50
2018-09-27T23:39:33.421Z,7.00
2018-09-27T23:42:03.306Z,6.57
2018-09-27T23:44:34.161Z,7.37
2018-09-27T23:47:05.092Z,6.13
2018-09-27T23:49:35.022Z,6.07
2018-09-27T23:52:05.649Z,6.80
2018-09-27T23:54:36.161Z,6.57
2018-09-27T23:57:10.811Z,7.37
2018-09-27T23:59:41.449Z,7.30
